Time;durP1;ratioP1;P1;durP2;ratioP2;P2;SDS_P1;SDS_P2;PMS_P1;PMS_P2;Temp;Humidity;BMP_temperature;BMP_pressure;BME280_temperature;BME280_humidity;BME280_pressure;Samples;Min_cycle;Max_cycle;Signal;HPM_P1;HPM_P2
2023/10/18 00:02:37;;;;;;;;;;;;;;;16.79;48.06;100184.13;4215914;28;19928;-66
2023/10/18 00:04:38;;;;;;;;;;;;;;;16.79;48.35;100177.00;4215727;28;19950;-66
2023/10/18 00:06:40;;;;;;;;;;;;;;;16.79;48.56;100184.13;4216259;28;19932;-72
2023/10/18 00:08:42;;;;;;;;;;;;;;;16.79;48.12;100176.16;4215965;28;19924;-66
2023/10/18 00:10:46;;;;;;;;;;;;;;;16.78;47.90;100175.31;4197927;28;19924;-69
2023/10/18 00:12:48;;;;;;;;;;;;;;;16.77;48.06;100169.16;4197675;28;19932;-69
2023/10/18 00:14:51;;;;;;;;;;;;;;;16.77;48.32;100169.16;4215508;28;20453;-67
2023/10/18 00:16:52;;;;;;;;;;;;;;;16.76;48.32;100162.13;4215771;28;20302;-66
2023/10/18 00:18:54;;;;;;;;;;;;;;;16.76;48.53;100162.13;4215659;28;19925;-67
2023/10/18 00:21:03;;;;;;;;;;;;;;;16.75;48.40;100167.56;4215497;28;20266;-69
2023/10/18 00:23:04;;;;;;;;;;;;;;;16.74;48.37;100164.06;4215328;28;19993;-69
2023/10/18 00:25:06;;;;;;;;;;;;;;;16.73;48.32;100157.06;4215590;28;19935;-67
2023/10/18 00:27:09;;;;;;;;;;;;;;;16.77;48.59;100157.69;4215817;28;19928;-68
2023/10/18 00:29:12;;;;;;;;;;;;;;;16.86;48.04;100162.31;4215728;28;19996;-70
2023/10/18 00:31:18;;;;;;;;;;;;;;;16.90;48.05;100153.19;4215322;28;19961;-69
2023/10/18 00:33:20;;;;;;;;;;;;;;;16.88;48.03;100154.28;4215486;28;19986;-66
2023/10/18 00:35:31;;;;;;;;;;;;;;;16.83;48.54;100151.94;4215390;28;20274;-67
2023/10/18 00:37:33;;;;;;;;;;;;;;;16.80;48.36;100154.81;4215041;28;19925;-68
2023/10/18 00:39:35;;;;;;;;;;;;;;;16.77;48.29;100149.72;4215432;28;19970;-67
2023/10/18 00:41:43;;;;;;;;;;;;;;;16.76;48.51;100132.91;4215012;28;19931;-68
2023/10/18 00:43:44;;;;;;;;;;;;;;;16.73;48.40;100127.84;4215352;28;19924;-71
2023/10/18 00:45:53;;;;;;;;;;;;;;;16.72;48.49;100125.28;4214954;28;19969;-69
2023/10/18 00:47:56;;;;;;;;;;;;;;;16.70;48.49;100128.06;4215417;28;20003;-67
2023/10/18 00:49:59;;;;;;;;;;;;;;;16.70;48.47;100130.72;4215207;28;19928;-65
2023/10/18 00:52:01;;;;;;;;;;;;;;;16.69;48.52;100136.97;4214954;28;19924;-67
2023/10/18 00:54:03;;;;;;;;;;;;;;;16.68;48.52;100129.13;4215150;28;20382;-66
2023/10/18 00:56:05;;;;;;;;;;;;;;;16.77;48.25;100125.81;4214763;28;19993;-67
2023/10/18 00:58:16;;;;;;;;;;;;;;;16.87;48.24;100120.69;4215044;28;20004;-67
2023/10/18 01:00:24;;;;;;;;;;;;;;;16.85;47.98;100115.47;4216467;28;20007;-69
2023/10/18 01:02:28;;;;;;;;;;;;;;;16.79;48.35;100109.78;4217989;28;20015;-66
2023/10/18 01:04:34;;;;;;;;;;;;;;;16.75;48.53;100103.84;4215170;28;19925;-67
2023/10/18 01:06:37;;;;;;;;;;;;;;;16.72;48.47;100109.34;4214524;28;19928;-68
2023/10/18 01:08:39;;;;;;;;;;;;;;;16.71;48.71;100102.38;4214823;28;19975;-67
2023/10/18 01:10:42;;;;;;;;;;;;;;;16.69;48.34;100098.97;4215218;28;19924;-66
2023/10/18 01:12:45;;;;;;;;;;;;;;;16.68;48.63;100092.78;4214736;28;19970;-67
2023/10/18 01:14:48;;;;;;;;;;;;;;;16.69;48.37;100088.34;4197101;28;20042;-66
2023/10/18 01:16:53;;;;;;;;;;;;;;;16.62;48.50;100090.56;4214673;28;19924;-66
2023/10/18 01:18:55;;;;;;;;;;;;;;;16.60;48.58;100089.84;4214838;28;19930;-66
2023/10/18 01:20:57;;;;;;;;;;;;;;;16.55;48.80;100084.88;4214411;28;20351;-66
2023/10/18 01:22:58;;;;;;;;;;;;;;;16.54;48.86;100077.03;4214517;28;20030;-66
2023/10/18 01:25:00;;;;;;;;;;;;;;;16.60;48.90;100072.09;4214761;28;19932;-65
2023/10/18 01:27:02;;;;;;;;;;;;;;;16.73;48.50;100056.16;4214339;28;19928;-66
2023/10/18 01:29:04;;;;;;;;;;;;;;;16.83;47.88;100064.31;4214868;28;19928;-66
2023/10/18 01:31:06;;;;;;;;;;;;;;;16.80;48.22;100064.50;4214813;28;20397;-66
2023/10/18 01:33:13;;;;;;;;;;;;;;;16.75;48.19;100062.19;4214274;28;19932;-68
2023/10/18 01:35:15;;;;;;;;;;;;;;;16.69;48.38;100054.66;4215494;28;19967;-67
2023/10/18 01:37:20;;;;;;;;;;;;;;;16.67;48.37;100055.72;4229016;28;19930;-67
2023/10/18 01:39:22;;;;;;;;;;;;;;;16.66;48.86;100046.94;4214288;28;20469;-65
2023/10/18 01:41:28;;;;;;;;;;;;;;;16.63;48.61;100048.97;4214613;28;19924;-66
2023/10/18 01:43:30;;;;;;;;;;;;;;;16.62;48.85;100040.13;4213989;28;20301;-67
2023/10/18 01:45:38;;;;;;;;;;;;;;;16.60;48.77;100045.56;4214662;28;20025;-67
2023/10/18 01:47:40;;;;;;;;;;;;;;;16.60;48.65;100047.38;4214312;28;20026;-67
2023/10/18 01:49:54;;;;;;;;;;;;;;;16.61;48.56;100049.91;4214133;28;19924;-68
2023/10/18 01:51:57;;;;;;;;;;;;;;;16.62;48.60;100050.75;4214502;28;19924;-68
2023/10/18 01:54:05;;;;;;;;;;;;;;;16.61;48.61;100041.94;4196247;28;20003;-68
2023/10/18 01:56:07;;;;;;;;;;;;;;;16.64;48.58;100040.03;4214506;28;19946;-67
2023/10/18 01:58:10;;;;;;;;;;;;;;;16.74;48.63;100036.59;4214061;28;19925;-68
2023/10/18 02:00:34;;;;;;;;;;;;;;;16.84;48.15;100022.66;4214372;28;19928;-68
2023/10/18 02:02:35;;;;;;;;;;;;;;;16.78;48.09;100026.63;4213996;28;19924;-68
2023/10/18 02:04:40;;;;;;;;;;;;;;;16.74;48.00;100022.47;4213570;28;19924;-69
2023/10/18 02:06:59;;;;;;;;;;;;;;;16.72;48.13;100027.03;4197276;28;20015;-65
2023/10/18 02:09:01;;;;;;;;;;;;;;;16.68;48.53;100018.44;4204310;28;19928;-61
2023/10/18 02:11:05;;;;;;;;;;;;;;;16.71;48.04;100017.41;4213968;28;20030;-63
2023/10/18 02:13:09;;;;;;;;;;;;;;;16.69;47.95;100017.47;4214040;28;19963;-67
2023/10/18 02:15:12;;;;;;;;;;;;;;;16.64;48.42;100009.00;4213729;28;20044;-67
2023/10/18 02:17:13;;;;;;;;;;;;;;;16.64;48.34;100014.31;4213849;28;19929;-67
2023/10/18 02:19:21;;;;;;;;;;;;;;;16.65;48.35;100009.84;4213416;28;19928;-65
2023/10/18 02:21:23;;;;;;;;;;;;;;;16.66;48.16;100009.75;4213762;28;20279;-68
2023/10/18 02:23:32;;;;;;;;;;;;;;;16.64;48.13;100005.53;4213864;28;19931;-67
2023/10/18 02:25:43;;;;;;;;;;;;;;;16.61;48.33;99994.16;4213791;28;19955;-68
2023/10/18 02:27:45;;;;;;;;;;;;;;;16.59;48.62;99990.75;4196677;28;19924;-66
2023/10/18 02:29:47;;;;;;;;;;;;;;;16.56;48.54;99984.81;4205600;28;19931;-67
2023/10/18 02:31:51;;;;;;;;;;;;;;;16.58;48.39;99975.78;4213917;28;19928;-67
2023/10/18 02:33:53;;;;;;;;;;;;;;;16.58;48.44;99974.94;4213185;28;19935;-68
2023/10/18 02:35:57;;;;;;;;;;;;;;;16.62;48.35;99971.09;4220021;28;19981;-76
2023/10/18 02:38:08;;;;;;;;;;;;;;;16.69;48.16;99958.25;4196737;28;19949;-71
2023/10/18 02:40:17;;;;;;;;;;;;;;;16.72;48.26;99956.22;4220880;28;19928;-68
2023/10/18 02:42:18;;;;;;;;;;;;;;;16.67;48.03;99953.06;4213889;28;20006;-70
2023/10/18 02:44:23;;;;;;;;;;;;;;;16.64;48.49;99953.25;4213370;28;19978;-69
2023/10/18 02:46:25;;;;;;;;;;;;;;;16.62;48.23;99947.22;4213148;28;19943;-70
2023/10/18 02:48:28;;;;;;;;;;;;;;;16.60;48.07;99942.03;4213106;28;19924;-65
2023/10/18 02:50:31;;;;;;;;;;;;;;;16.59;48.54;99947.44;4213115;28;19928;-71
2023/10/18 02:52:33;;;;;;;;;;;;;;;16.58;48.24;99938.63;4213380;28;20005;-72
2023/10/18 02:54:35;;;;;;;;;;;;;;;16.60;48.38;99936.72;4213384;28;20003;-66
2023/10/18 02:56:39;;;;;;;;;;;;;;;16.59;48.37;99936.84;4212439;28;20041;-69
2023/10/18 02:58:43;;;;;;;;;;;;;;;16.60;48.26;99936.72;4213254;28;20011;-73
2023/10/18 03:00:46;;;;;;;;;;;;;;;16.60;48.72;99936.72;4215476;28;19924;-73
2023/10/18 03:02:48;;;;;;;;;;;;;;;16.61;48.27;99940.22;4212871;28;19924;-73
2023/10/18 03:04:52;;;;;;;;;;;;;;;16.60;48.42;99935.88;4213623;28;19928;-72
2023/10/18 03:06:55;;;;;;;;;;;;;;;16.58;48.49;99933.31;4212997;28;19959;-70
2023/10/18 03:08:58;;;;;;;;;;;;;;;16.58;48.08;99922.69;4213394;28;20018;-68
2023/10/18 03:11:02;;;;;;;;;;;;;;;16.52;48.26;99907.22;4213436;28;19928;-71
2023/10/18 03:13:11;;;;;;;;;;;;;;;16.64;48.17;99904.63;4213865;28;19930;-70
2023/10/18 03:15:18;;;;;;;;;;;;;;;16.70;47.89;99897.06;4213628;28;20015;-70
2023/10/18 03:17:23;;;;;;;;;;;;;;;16.55;48.12;99899.03;4213152;28;19935;-70
2023/10/18 03:19:25;;;;;;;;;;;;;;;16.44;48.57;99897.19;4213119;28;20011;-71
2023/10/18 03:21:32;;;;;;;;;;;;;;;16.34;48.46;99890.84;4213913;28;19936;-71
2023/10/18 03:23:44;;;;;;;;;;;;;;;16.25;48.91;99889.72;4213216;28;20034;-71
2023/10/18 03:25:45;;;;;;;;;;;;;;;16.19;48.95;99884.03;4213911;28;19924;-70
2023/10/18 03:27:50;;;;;;;;;;;;;;;16.12;49.26;99876.50;4213795;28;19924;-71
2023/10/18 03:29:58;;;;;;;;;;;;;;;16.06;49.31;99874.28;4213708;28;19927;-71
2023/10/18 03:32:00;;;;;;;;;;;;;;;16.01;49.34;99880.88;4179490;28;19929;-70
2023/10/18 03:34:02;;;;;;;;;;;;;;;15.97;49.66;99896.16;4213404;28;19928;-70
2023/10/18 03:36:17;;;;;;;;;;;;;;;15.95;49.48;99908.69;4221605;28;19924;-70
2023/10/18 03:38:24;;;;;;;;;;;;;;;15.90;49.71;99910.81;4230443;28;20342;-70
2023/10/18 03:40:27;;;;;;;;;;;;;;;15.87;49.70;99903.06;4230506;28;19977;-70
2023/10/18 03:42:32;;;;;;;;;;;;;;;15.83;49.86;99897.13;4230566;28;19959;-69
2023/10/18 03:44:34;;;;;;;;;;;;;;;15.80;49.98;99903.47;4230369;28;19931;-69
2023/10/18 03:46:39;;;;;;;;;;;;;;;15.77;50.00;99906.34;4230157;28;19976;-70
2023/10/18 03:48:44;;;;;;;;;;;;;;;15.75;50.27;99910.91;4230169;28;19927;-70
2023/10/18 03:50:47;;;;;;;;;;;;;;;15.73;50.07;99906.69;4230236;28;19967;-69
2023/10/18 03:52:50;;;;;;;;;;;;;;;15.71;50.05;99900.63;4230122;28;19927;-70
2023/10/18 03:56:56;;;;;;;;;;;;;;;15.66;50.16;99900.94;4230053;28;19923;-69
2023/10/18 03:59:01;;;;;;;;;;;;;;;15.65;50.14;99908.06;4230334;28;19947;-68
2023/10/18 04:01:05;;;;;;;;;;;;;;;15.63;50.41;99902.00;4222236;28;19924;-69
2023/10/18 04:03:15;;;;;;;;;;;;;;;15.61;50.40;99897.78;4213320;28;20440;-69
2023/10/18 04:05:30;;;;;;;;;;;;;;;15.60;50.53;99891.63;4213447;28;19952;-69
2023/10/18 04:07:32;;;;;;;;;;;;;;;15.59;50.32;99897.88;4213348;28;20381;-70
2023/10/18 04:09:34;;;;;;;;;;;;;;;15.58;50.32;99884.75;4213482;28;20446;-69
2023/10/18 04:11:37;;;;;;;;;;;;;;;15.56;50.50;99878.69;4213298;28;19924;-69
2023/10/18 04:13:39;;;;;;;;;;;;;;;15.55;50.40;99872.53;4213434;28;20090;-69
2023/10/18 04:15:57;;;;;;;;;;;;;;;15.53;50.55;99873.59;4194983;28;20362;-68
2023/10/18 04:22:23;;;;;;;;;;;;;;;15.49;50.80;99867.66;4213364;28;19925;-69
2023/10/18 04:24:25;;;;;;;;;;;;;;;15.47;50.60;99857.19;4212880;28;19959;-69
2023/10/18 04:26:26;;;;;;;;;;;;;;;15.44;50.80;99857.41;4213456;28;19924;-69
2023/10/18 04:28:37;;;;;;;;;;;;;;;15.45;50.75;99858.25;4213184;28;20385;-69
2023/10/18 04:30:39;;;;;;;;;;;;;;;15.42;51.04;99846.06;4212919;28;19947;-69
2023/10/18 04:32:40;;;;;;;;;;;;;;;15.41;50.98;99849.66;4216085;28;19975;-69
2023/10/18 04:34:44;;;;;;;;;;;;;;;15.39;51.11;99862.16;4216208;28;20350;-69
2023/10/18 04:36:45;;;;;;;;;;;;;;;15.40;50.97;99855.09;4230228;28;19924;-70
2023/10/18 04:38:47;;;;;;;;;;;;;;;15.39;51.13;99848.91;4233208;28;19930;-70
2023/10/18 04:43:06;;;;;;;;;;;;;;;15.38;50.98;99851.69;4233130;28;19931;-68
2023/10/18 04:45:16;;;;;;;;;;;;;;;15.37;51.10;99836.75;4214351;28;19924;-70
2023/10/18 04:47:18;;;;;;;;;;;;;;;15.36;50.89;99820.00;4232901;28;19943;-70
2023/10/18 04:49:31;;;;;;;;;;;;;;;15.35;51.34;99807.72;4233133;28;20003;-70
2023/10/18 04:51:33;;;;;;;;;;;;;;;15.32;51.33;99815.84;4232841;28;20363;-69
2023/10/18 04:53:35;;;;;;;;;;;;;;;15.30;51.57;99808.03;4233040;28;20435;-70
2023/10/18 04:55:46;;;;;;;;;;;;;;;15.28;51.52;99804.63;4232983;28;20308;-70
2023/10/18 04:57:50;;;;;;;;;;;;;;;15.26;51.34;99806.56;4232615;28;19924;-70
2023/10/18 04:59:59;;;;;;;;;;;;;;;15.27;51.93;99804.75;4232876;28;19924;-70
2023/10/18 05:02:00;;;;;;;;;;;;;;;15.26;51.60;99790.66;4216801;28;19934;-70
2023/10/18 05:04:21;;;;;;;;;;;;;;;15.25;51.67;99793.41;4215839;28;19973;-71
2023/10/18 05:06:28;;;;;;;;;;;;;;;15.23;51.94;99795.31;4215903;28;19977;-70
2023/10/18 05:08:30;;;;;;;;;;;;;;;15.22;51.77;99791.81;4215557;28;20059;-70
2023/10/18 05:10:32;;;;;;;;;;;;;;;15.22;51.99;99790.97;4197641;28;19971;-70
2023/10/18 05:12:42;;;;;;;;;;;;;;;15.21;52.13;99795.41;4197475;28;19924;-71
2023/10/18 05:14:59;;;;;;;;;;;;;;;15.20;52.03;99788.44;4215685;28;19947;-70
2023/10/18 05:17:10;;;;;;;;;;;;;;;15.18;51.81;99785.88;4215625;28;20309;-70
2023/10/18 05:19:12;;;;;;;;;;;;;;;15.20;52.00;99782.28;4215634;28;20023;-71
2023/10/18 05:21:20;;;;;;;;;;;;;;;15.19;52.12;99781.44;4197766;28;20490;-69
2023/10/18 05:23:25;;;;;;;;;;;;;;;15.18;51.99;99775.28;4215477;28;20389;-71
2023/10/18 05:25:35;;;;;;;;;;;;;;;15.18;52.21;99775.28;4215420;28;20007;-70
2023/10/18 05:27:39;;;;;;;;;;;;;;;15.18;52.13;99771.81;4215024;28;19970;-70
2023/10/18 05:29:43;;;;;;;;;;;;;;;15.17;52.42;99770.09;4215429;28;19946;-70
2023/10/18 05:31:49;;;;;;;;;;;;;;;15.16;52.36;99774.56;4215152;28;19930;-70
2023/10/18 05:34:02;;;;;;;;;;;;;;;15.15;52.39;99766.72;4215395;28;19951;-70
2023/10/18 05:36:11;;;;;;;;;;;;;;;15.14;52.51;99760.59;4223321;28;19924;-70
2023/10/18 05:42:35;;;;;;;;;;;;;;;15.14;52.47;99768.53;4231837;28;20014;-70
2023/10/18 05:44:38;;;;;;;;;;;;;;;15.13;52.62;99763.34;4231971;28;19924;-70
2023/10/18 05:46:41;;;;;;;;;;;;;;;15.13;52.43;99763.34;4231908;28;19962;-70
2023/10/18 05:48:43;;;;;;;;;;;;;;;15.14;52.37;99759.72;4231713;28;20278;-70
2023/10/18 05:51:02;;;;;;;;;;;;;;;15.13;52.23;99761.53;4231889;28;19951;-70
2023/10/18 05:53:10;;;;;;;;;;;;;;;15.13;52.31;99756.22;4232023;28;19931;-70
2023/10/18 05:55:12;;;;;;;;;;;;;;;15.13;52.44;99755.41;4231926;28;19924;-70
2023/10/18 05:57:21;;;;;;;;;;;;;;;15.12;52.51;99761.66;4231553;28;19923;-69
2023/10/18 06:01:31;;;;;;;;;;;;;;;15.11;52.68;99760.78;4221383;28;19930;-69
2023/10/18 06:03:39;;;;;;;;;;;;;;;15.12;52.80;99753.69;4231714;28;20382;-70
2023/10/18 06:05:42;;;;;;;;;;;;;;;15.10;52.61;99759.09;4231847;28;19967;-70
2023/10/18 06:07:45;;;;;;;;;;;;;;;15.10;52.45;99752.94;4231285;28;19928;-70
2023/10/18 06:09:57;;;;;;;;;;;;;;;15.10;52.82;99763.53;4213910;28;19931;-70
2023/10/18 06:12:06;;;;;;;;;;;;;;;15.08;52.77;99760.16;4231208;28;20355;-70
2023/10/18 06:14:16;;;;;;;;;;;;;;;15.08;52.79;99761.00;4231466;28;19999;-70
2023/10/18 06:16:20;;;;;;;;;;;;;;;15.08;52.88;99766.31;4231480;28;19948;-70
2023/10/18 06:18:30;;;;;;;;;;;;;;;15.09;52.79;99759.19;4217395;28;20034;-70
2023/10/18 06:20:39;;;;;;;;;;;;;;;15.08;52.79;99760.16;4214717;28;20400;-71
2023/10/18 06:22:43;;;;;;;;;;;;;;;15.07;52.88;99761.13;4214614;28;19946;-70
2023/10/18 06:24:48;;;;;;;;;;;;;;;15.07;52.91;99764.63;4213990;28;19924;-68
2023/10/18 06:26:52;;;;;;;;;;;;;;;15.07;52.92;99761.13;4214626;28;19924;-70
2023/10/18 06:28:56;;;;;;;;;;;;;;;15.08;52.77;99768.09;4214449;28;20023;-70
2023/10/18 06:30:58;;;;;;;;;;;;;;;15.07;52.88;99769.06;4214498;28;20346;-70
2023/10/18 06:33:05;;;;;;;;;;;;;;;15.07;52.71;99769.91;4214401;28;19931;-70
2023/10/18 06:35:14;;;;;;;;;;;;;;;15.07;52.71;99761.97;4214275;28;19928;-70
2023/10/18 06:37:41;;;;;;;;;;;;;;;15.06;52.77;99744.38;4230578;28;19951;-69
2023/10/18 06:39:42;;;;;;;;;;;;;;;15.07;52.20;99737.31;4230614;28;19928;-71
2023/10/18 06:41:45;;;;;;;;;;;;;;;15.08;52.86;99731.88;4231117;28;19963;-72
2023/10/18 06:43:49;;;;;;;;;;;;;;;15.07;53.15;99729.34;4231383;28;19924;-71
2023/10/18 06:45:53;;;;;;;;;;;;;;;15.04;53.49;99727.75;4230977;28;20338;-71
2023/10/18 06:47:55;;;;;;;;;;;;;;;15.03;53.49;99726.06;4230992;28;20006;-72
2023/10/18 06:49:59;;;;;;;;;;;;;;;15.01;53.39;99715.56;4231109;28;20301;-72
2023/10/18 06:52:22;;;;;;;;;;;;;;;15.02;53.22;99719.91;4231009;28;19967;-70
2023/10/18 06:54:30;;;;;;;;;;;;;;;15.01;53.32;99720.88;4230282;28;19923;-73
2023/10/18 06:56:39;;;;;;;;;;;;;;;14.99;53.38;99721.94;4230879;28;20056;-72
2023/10/18 07:00:47;;;;;;;;;;;;;;;14.98;53.61;99709.63;4225901;28;19931;-71
2023/10/18 07:02:50;;;;;;;;;;;;;;;14.99;53.43;99713.97;4213903;28;19924;-70
2023/10/18 07:04:52;;;;;;;;;;;;;;;15.00;53.32;99718.34;4213827;28;19977;-70
2023/10/18 07:06:57;;;;;;;;;;;;;;;14.99;53.59;99708.69;4213933;28;19931;-70
2023/10/18 07:09:08;;;;;;;;;;;;;;;14.99;53.26;99696.31;4213705;28;19959;-70
2023/10/18 07:11:16;;;;;;;;;;;;;;;14.99;53.13;99693.66;4214007;28;19988;-70
2023/10/18 07:13:24;;;;;;;;;;;;;;;14.98;53.22;99677.88;4214030;28;20382;-72
2023/10/18 07:15:33;;;;;;;;;;;;;;;14.99;53.21;99669.84;4213713;28;19993;-70
2023/10/18 07:17:37;;;;;;;;;;;;;;;14.99;53.45;99666.31;4213769;28;19928;-70
2023/10/18 07:21:49;;;;;;;;;;;;;;;14.99;53.22;99642.50;4213891;28;19928;-72
2023/10/18 07:23:53;;;;;;;;;;;;;;;14.99;53.48;99653.09;4213336;28;20039;-72
2023/10/18 07:25:55;;;;;;;;;;;;;;;14.95;53.54;99655.09;4213697;28;19959;-70
2023/10/18 07:28:09;;;;;;;;;;;;;;;14.97;53.42;99674.38;4213354;28;19924;-72
2023/10/18 07:30:15;;;;;;;;;;;;;;;14.98;53.38;99678.72;4213755;28;19951;-72
2023/10/18 07:32:20;;;;;;;;;;;;;;;14.99;53.38;99683.06;4213760;28;20020;-70
2023/10/18 07:34:32;;;;;;;;;;;;;;;15.01;53.32;99680.31;4213760;28;20271;-69
2023/10/18 07:36:38;;;;;;;;;;;;;;;15.02;53.36;99674.91;4225741;28;20427;-70
2023/10/18 07:38:55;;;;;;;;;;;;;;;15.02;53.59;99674.06;4230204;28;20014;-70
2023/10/18 07:40:57;;;;;;;;;;;;;;;15.01;53.28;99683.78;4230490;28;19930;-70
2023/10/18 07:42:59;;;;;;;;;;;;;;;15.02;53.12;99685.50;4230489;28;20404;-70
2023/10/18 07:45:04;;;;;;;;;;;;;;;15.04;53.19;99688.03;4230444;28;19929;-70
2023/10/18 07:47:08;;;;;;;;;;;;;;;15.05;53.16;99689.72;4230466;28;20290;-70
2023/10/18 07:49:12;;;;;;;;;;;;;;;15.07;53.07;99681.69;4230434;28;20006;-70
2023/10/18 07:51:24;;;;;;;;;;;;;;;15.07;53.28;99676.38;4230411;28;19953;-70
2023/10/18 07:53:28;;;;;;;;;;;;;;;15.07;53.15;99676.38;4229882;28;20010;-70
2023/10/18 07:55:36;;;;;;;;;;;;;;;15.08;53.22;99675.41;4230412;28;19923;-70
2023/10/18 07:57:46;;;;;;;;;;;;;;;15.09;53.06;99672.69;4230137;28;20466;-71
2023/10/18 07:59:48;;;;;;;;;;;;;;;15.09;52.93;99661.22;4230288;28;19939;-69
2023/10/18 08:02:23;;;;;;;;;;;;;;;15.10;52.90;99652.31;4215209;28;20023;-69
2023/10/18 08:04:27;;;;;;;;;;;;;;;15.08;53.08;99644.50;4213501;28;19924;-70
2023/10/18 08:06:33;;;;;;;;;;;;;;;15.08;53.06;99641.84;4214193;28;19924;-70
2023/10/18 08:08:41;;;;;;;;;;;;;;;15.08;53.13;99631.25;4216665;28;19996;-70
2023/10/18 08:10:43;;;;;;;;;;;;;;;15.09;53.02;99624.16;4216727;28;20355;-69
2023/10/18 08:12:48;;;;;;;;;;;;;;;15.10;53.13;99610.78;4216951;28;19935;-70
2023/10/18 08:14:50;;;;;;;;;;;;;;;15.09;53.05;99598.53;4207477;28;20309;-68
2023/10/18 08:17:05;;;;;;;;;;;;;;;15.09;53.21;99601.19;4200899;28;19968;-69
2023/10/18 08:19:09;;;;;;;;;;;;;;;15.10;52.92;99610.78;4216359;28;20343;-68
2023/10/18 08:21:25;;;;;;;;;;;;;;;15.10;53.34;99613.44;4216048;28;20307;-68
2023/10/18 08:25:32;;;;;;;;;;;;;;;15.16;54.09;99602.41;4216410;28;19924;-70
2023/10/18 08:27:34;;;;;;;;;;;;;;;15.20;54.83;99597.75;4211097;28;19924;-68
2023/10/18 08:29:38;;;;;;;;;;;;;;;15.22;54.05;99603.75;4216216;28;20046;-68
2023/10/18 08:31:43;;;;;;;;;;;;;;;15.27;53.63;99601.59;4216181;28;19924;-68
2023/10/18 08:33:45;;;;;;;;;;;;;;;15.29;54.13;99599.69;4215680;28;20297;-68
2023/10/18 08:35:58;;;;;;;;;;;;;;;15.32;53.84;99593.34;4215482;28;19924;-67
2023/10/18 08:38:01;;;;;;;;;;;;;;;15.33;53.82;99598.53;4216254;28;19975;-65
2023/10/18 08:40:15;;;;;;;;;;;;;;;15.32;53.02;99598.63;4216265;28;19950;-67
2023/10/18 08:42:20;;;;;;;;;;;;;;;15.33;54.20;99600.31;4215943;28;19924;-64
2023/10/18 08:44:22;;;;;;;;;;;;;;;15.32;54.29;99594.19;4212598;28;20420;-62
2023/10/18 08:46:28;;;;;;;;;;;;;;;15.37;55.37;99585.91;4210791;28;19970;-64
2023/10/18 08:48:30;;;;;;;;;;;;;;;15.40;55.18;99582.19;4215293;28;19924;-64
2023/10/18 08:50:39;;;;;;;;;;;;;;;15.42;54.63;99582.91;4215456;28;19930;-64
2023/10/18 08:52:47;;;;;;;;;;;;;;;15.42;54.75;99594.34;4210835;28;19979;-63
2023/10/18 08:54:49;;;;;;;;;;;;;;;15.44;55.02;99583.63;4199083;28;19986;-65
2023/10/18 08:56:52;;;;;;;;;;;;;;;15.44;55.39;99579.19;4199179;28;20023;-65
2023/10/18 08:58:56;;;;;;;;;;;;;;;15.45;55.39;99572.91;4198877;28;19924;-65
2023/10/18 09:01:03;;;;;;;;;;;;;;;15.47;55.45;99576.31;4210319;28;20015;-66
2023/10/18 09:03:07;;;;;;;;;;;;;;;15.48;55.55;99571.84;4215673;28;20002;-65
2023/10/18 09:05:10;;;;;;;;;;;;;;;15.50;55.54;99567.28;4215364;28;19925;-66
2023/10/18 09:07:23;;;;;;;;;;;;;;;15.43;55.80;99550.16;4215605;28;19928;-66
2023/10/18 09:09:25;;;;;;;;;;;;;;;15.53;55.54;99576.81;4215498;28;20138;-66
2023/10/18 09:11:28;;;;;;;;;;;;;;;15.53;55.99;99569.72;4215316;28;19924;-65
2023/10/18 09:13:41;;;;;;;;;;;;;;;15.55;56.02;99559.81;4215441;28;20456;-66
2023/10/18 09:18:05;;;;;;;;;;;;;;;15.58;55.08;99554.31;4217936;28;20416;-66
2023/10/18 09:20:08;;;;;;;;;;;;;;;15.60;55.61;99547.09;4232006;28;20023;-65
2023/10/18 09:22:10;;;;;;;;;;;;;;;15.62;55.67;99546.97;4232421;28;19923;-67
2023/10/18 09:24:11;;;;;;;;;;;;;;;15.64;55.82;99550.34;4225447;28;19924;-65
2023/10/18 09:26:18;;;;;;;;;;;;;;;15.65;55.55;99544.09;4212357;28;19924;-67
2023/10/18 09:28:33;;;;;;;;;;;;;;;15.66;55.31;99543.13;4214505;28;19946;-65
2023/10/18 09:30:36;;;;;;;;;;;;;;;15.67;55.07;99543.97;4214937;28;20312;-65
2023/10/18 09:32:38;;;;;;;;;;;;;;;15.69;55.39;99547.34;4196953;28;19924;-67
2023/10/18 09:34:42;;;;;;;;;;;;;;;15.69;55.25;99542.03;4196752;28;19973;-67
2023/10/18 09:36:54;;;;;;;;;;;;;;;15.68;55.06;99546.50;4214665;28;19924;-66
2023/10/18 09:38:57;;;;;;;;;;;;;;;15.69;54.96;99547.34;4215244;28;19928;-65
2023/10/18 09:40:59;;;;;;;;;;;;;;;15.69;55.18;99540.25;4212801;28;20023;-66
2023/10/18 09:43:00;;;;;;;;;;;;;;;15.71;54.76;99542.78;4195665;28;20472;-66
2023/10/18 09:45:03;;;;;;;;;;;;;;;15.71;55.04;99540.13;4214505;28;19969;-65
2023/10/18 09:47:04;;;;;;;;;;;;;;;15.70;54.99;99539.28;4214645;28;20339;-66
2023/10/18 09:49:09;;;;;;;;;;;;;;;15.72;54.79;99532.03;4214275;28;19928;-65
2023/10/18 09:51:15;;;;;;;;;;;;;;;15.73;55.00;99530.25;4214992;28;20016;-66
2023/10/18 09:53:22;;;;;;;;;;;;;;;15.72;54.68;99524.09;4214787;28;19960;-66
2023/10/18 09:55:28;;;;;;;;;;;;;;;15.72;54.45;99528.56;4215011;28;19924;-66
2023/10/18 09:57:35;;;;;;;;;;;;;;;15.71;54.98;99517.13;4214643;28;20014;-66
2023/10/18 09:59:37;;;;;;;;;;;;;;;15.71;54.98;99519.78;4214883;28;19951;-66
2023/10/18 10:03:52;;;;;;;;;;;;;;;15.70;55.45;99510.13;4231302;28;19931;-65
2023/10/18 10:05:57;;;;;;;;;;;;;;;15.70;55.60;99510.13;4231698;28;20362;-66
2023/10/18 10:08:07;;;;;;;;;;;;;;;15.69;55.53;99505.78;4231769;28;19934;-66
2023/10/18 10:10:09;;;;;;;;;;;;;;;15.70;55.42;99503.97;4231379;28;19923;-66
2023/10/18 10:12:11;;;;;;;;;;;;;;;15.69;55.46;99494.31;4231644;28;19962;-66
2023/10/18 10:14:16;;;;;;;;;;;;;;;15.68;55.69;99482.06;4231531;28;19931;-66
2023/10/18 10:16:20;;;;;;;;;;;;;;;15.68;55.53;99485.53;4231632;28;19924;-67
2023/10/18 10:18:26;;;;;;;;;;;;;;;15.67;55.54;99469.75;4220814;28;19924;-66
2023/10/18 10:20:32;;;;;;;;;;;;;;;15.68;54.81;99482.88;4231257;28;20022;-65
2023/10/18 10:22:35;;;;;;;;;;;;;;;15.67;55.02;99483.84;4231189;28;19924;-67
2023/10/18 10:24:42;;;;;;;;;;;;;;;15.67;54.99;99499.75;4231106;28;19934;-66
2023/10/18 10:26:51;;;;;;;;;;;;;;;15.67;55.33;99490.97;4231405;28;19949;-66
2023/10/18 10:31:20;;;;;;;;;;;;;;;15.67;55.76;99475.91;4231349;28;19982;-66
2023/10/18 10:33:23;;;;;;;;;;;;;;;15.68;55.77;99469.63;4231183;28;20334;-66
2023/10/18 10:35:32;;;;;;;;;;;;;;;15.68;55.84;99461.69;4225321;28;19928;-66
2023/10/18 10:37:35;;;;;;;;;;;;;;;15.68;55.98;99464.34;4214392;28;19924;-67
2023/10/18 10:39:44;;;;;;;;;;;;;;;15.70;55.30;99457.13;4214415;28;19932;-66
2023/10/18 10:41:46;;;;;;;;;;;;;;;15.71;54.83;99450.00;4214341;28;19932;-66
2023/10/18 10:44:07;;;;;;;;;;;;;;;15.72;55.72;99452.53;4214206;28;19951;-66
2023/10/18 10:46:35;;;;;;;;;;;;;;;15.72;54.88;99449.88;4213935;28;19924;-66
2023/10/18 10:48:45;;;;;;;;;;;;;;;15.74;54.80;99452.44;4213971;28;19963;-66
2023/10/18 10:50:50;;;;;;;;;;;;;;;15.75;55.03;99451.47;4214072;28;19932;-66
2023/10/18 10:52:53;;;;;;;;;;;;;;;15.76;55.12;99446.03;4214097;28;19924;-66
2023/10/18 10:55:24;;;;;;;;;;;;;;;15.76;55.55;99439.88;4214025;28;19928;-66
2023/10/18 10:57:27;;;;;;;;;;;;;;;15.78;56.03;99437.97;4211874;28;20003;-66
2023/10/18 10:59:35;;;;;;;;;;;;;;;15.77;55.29;99428.31;4213777;28;19989;-66
2023/10/18 11:01:43;;;;;;;;;;;;;;;15.77;55.18;99426.53;4226114;28;19938;-67
2023/10/18 11:03:54;;;;;;;;;;;;;;;15.77;55.68;99425.66;4230856;28;19998;-66
2023/10/18 11:06:05;;;;;;;;;;;;;;;15.78;55.82;99422.91;4230904;28;19939;-66
2023/10/18 11:08:12;;;;;;;;;;;;;;;15.77;55.19;99418.56;4230672;28;19972;-67
2023/10/18 11:10:17;;;;;;;;;;;;;;;15.77;55.69;99412.41;4230677;28;20392;-66
2023/10/18 11:12:20;;;;;;;;;;;;;;;15.77;55.52;99413.28;4230829;28;19923;-66
2023/10/18 11:14:27;;;;;;;;;;;;;;;15.70;56.02;99384.69;4230662;28;19935;-66
2023/10/18 11:16:29;;;;;;;;;;;;;;;15.77;55.81;99396.50;4230530;28;19923;-67
2023/10/18 11:18:34;;;;;;;;;;;;;;;15.77;55.94;99397.38;4197404;28;19936;-66
2023/10/18 11:20:48;;;;;;;;;;;;;;;15.77;56.07;99393.84;4213931;28;20604;-66
2023/10/18 11:22:50;;;;;;;;;;;;;;;15.76;55.55;99384.22;4213748;28;20036;-66